sensor_id;sensor_type;location;lat;lon;timestamp;P1;durP1;ratioP1;P2;durP2;ratioP2
37349;SDS011;23231;52.358;4.926;2022-11-28T00:03:55;28.37;;;14.97;;
37349;SDS011;23231;52.358;4.926;2022-11-28T00:08:59;25.77;;;14.07;;
37349;SDS011;23231;52.358;4.926;2022-11-28T00:13:59;25.57;;;14.20;;
37349;SDS011;23231;52.358;4.926;2022-11-28T00:19:00;32.70;;;16.90;;
37349;SDS011;23231;52.358;4.926;2022-11-28T00:24:01;34.13;;;16.87;;
37349;SDS011;23231;52.358;4.926;2022-11-28T00:29:02;30.70;;;16.23;;
37349;SDS011;23231;52.358;4.926;2022-11-28T00:34:03;38.00;;;17.97;;
37349;SDS011;23231;52.358;4.926;2022-11-28T00:39:03;30.53;;;15.63;;
37349;SDS011;23231;52.358;4.926;2022-11-28T00:44:04;29.20;;;14.53;;
37349;SDS011;23231;52.358;4.926;2022-11-28T00:49:05;33.03;;;17.37;;
37349;SDS011;23231;52.358;4.926;2022-11-28T00:54:05;34.20;;;16.43;;
37349;SDS011;23231;52.358;4.926;2022-11-28T00:59:06;32.70;;;16.43;;
37349;SDS011;23231;52.358;4.926;2022-11-28T01:04:07;35.80;;;17.50;;
37349;SDS011;23231;52.358;4.926;2022-11-28T01:09:11;24.00;;;13.80;;
37349;SDS011;23231;52.358;4.926;2022-11-28T01:14:15;34.50;;;17.08;;
37349;SDS011;23231;52.358;4.926;2022-11-28T01:19:18;29.60;;;15.27;;
37349;SDS011;23231;52.358;4.926;2022-11-28T01:24:18;22.80;;;13.15;;
37349;SDS011;23231;52.358;4.926;2022-11-28T01:29:19;26.25;;;13.88;;
37349;SDS011;23231;52.358;4.926;2022-11-28T01:34:19;23.83;;;13.63;;
37349;SDS011;23231;52.358;4.926;2022-11-28T01:39:19;31.87;;;16.23;;
37349;SDS011;23231;52.358;4.926;2022-11-28T01:49:21;28.37;;;15.27;;
37349;SDS011;23231;52.358;4.926;2022-11-28T01:54:26;25.83;;;15.30;;
37349;SDS011;23231;52.358;4.926;2022-11-28T01:59:29;29.98;;;16.00;;
37349;SDS011;23231;52.358;4.926;2022-11-28T02:04:33;28.05;;;15.25;;
37349;SDS011;23231;52.358;4.926;2022-11-28T02:09:33;32.00;;;17.13;;
37349;SDS011;23231;52.358;4.926;2022-11-28T02:56:28;26.90;;;16.10;;
37349;SDS011;23231;52.358;4.926;2022-11-28T03:01:32;28.60;;;15.75;;
37349;SDS011;23231;52.358;4.926;2022-11-28T03:06:38;25.85;;;13.60;;
37349;SDS011;23231;52.358;4.926;2022-11-28T03:17:01;29.00;;;15.73;;
37349;SDS011;23231;52.358;4.926;2022-11-28T03:27:42;25.98;;;14.50;;
37349;SDS011;23231;52.358;4.926;2022-11-28T03:32:46;36.85;;;17.30;;
37349;SDS011;23231;52.358;4.926;2022-11-28T03:37:52;38.30;;;17.42;;
37349;SDS011;23231;52.358;4.926;2022-11-28T03:42:56;31.25;;;16.05;;
37349;SDS011;23231;52.358;4.926;2022-11-28T03:48:00;39.30;;;17.77;;
37349;SDS011;23231;52.358;4.926;2022-11-28T03:53:06;34.08;;;17.30;;
37349;SDS011;23231;52.358;4.926;2022-11-28T03:58:12;44.17;;;19.77;;
37349;SDS011;23231;52.358;4.926;2022-11-28T04:08:24;38.63;;;17.67;;
37349;SDS011;23231;52.358;4.926;2022-11-28T04:24:02;40.72;;;19.73;;
37349;SDS011;23231;52.358;4.926;2022-11-28T04:29:07;42.47;;;19.42;;
37349;SDS011;23231;52.358;4.926;2022-11-28T04:34:09;44.50;;;20.23;;
37349;SDS011;23231;52.358;4.926;2022-11-28T04:39:11;37.72;;;18.25;;
37349;SDS011;23231;52.358;4.926;2022-11-28T04:44:17;40.47;;;18.50;;
37349;SDS011;23231;52.358;4.926;2022-11-28T04:49:25;36.90;;;18.30;;
37349;SDS011;23231;52.358;4.926;2022-11-28T04:59:30;41.63;;;19.53;;
37349;SDS011;23231;52.358;4.926;2022-11-28T05:04:33;42.30;;;20.13;;
37349;SDS011;23231;52.358;4.926;2022-11-28T05:09:34;68.75;;;25.13;;
37349;SDS011;23231;52.358;4.926;2022-11-28T05:14:35;47.33;;;21.25;;
37349;SDS011;23231;52.358;4.926;2022-11-28T05:19:35;50.25;;;22.98;;
37349;SDS011;23231;52.358;4.926;2022-11-28T05:24:35;50.15;;;22.73;;
37349;SDS011;23231;52.358;4.926;2022-11-28T05:29:36;59.30;;;24.15;;
37349;SDS011;23231;52.358;4.926;2022-11-28T05:34:36;60.88;;;23.23;;
37349;SDS011;23231;52.358;4.926;2022-11-28T05:39:37;51.80;;;22.70;;
37349;SDS011;23231;52.358;4.926;2022-11-28T05:44:37;44.70;;;21.30;;
37349;SDS011;23231;52.358;4.926;2022-11-28T05:49:38;52.20;;;22.70;;
37349;SDS011;23231;52.358;4.926;2022-11-28T05:54:38;38.80;;;19.55;;
37349;SDS011;23231;52.358;4.926;2022-11-28T05:59:38;40.28;;;18.52;;
37349;SDS011;23231;52.358;4.926;2022-11-28T06:04:39;47.25;;;19.60;;
37349;SDS011;23231;52.358;4.926;2022-11-28T06:09:40;48.90;;;19.92;;
37349;SDS011;23231;52.358;4.926;2022-11-28T06:14:41;43.77;;;18.30;;
37349;SDS011;23231;52.358;4.926;2022-11-28T06:19:41;32.37;;;16.23;;
37349;SDS011;23231;52.358;4.926;2022-11-28T06:24:41;31.02;;;15.55;;
37349;SDS011;23231;52.358;4.926;2022-11-28T06:29:42;31.15;;;14.27;;
37349;SDS011;23231;52.358;4.926;2022-11-28T06:34:42;38.38;;;16.92;;
37349;SDS011;23231;52.358;4.926;2022-11-28T06:39:43;39.63;;;18.10;;
37349;SDS011;23231;52.358;4.926;2022-11-28T06:44:43;45.88;;;20.42;;
37349;SDS011;23231;52.358;4.926;2022-11-28T06:49:43;40.70;;;17.67;;
37349;SDS011;23231;52.358;4.926;2022-11-28T06:54:44;33.80;;;16.52;;
37349;SDS011;23231;52.358;4.926;2022-11-28T06:59:44;52.05;;;21.08;;
37349;SDS011;23231;52.358;4.926;2022-11-28T07:04:45;59.40;;;24.27;;
37349;SDS011;23231;52.358;4.926;2022-11-28T07:09:45;47.42;;;20.48;;
37349;SDS011;23231;52.358;4.926;2022-11-28T07:14:45;50.67;;;21.85;;
37349;SDS011;23231;52.358;4.926;2022-11-28T07:19:46;66.82;;;23.48;;
37349;SDS011;23231;52.358;4.926;2022-11-28T07:24:46;64.50;;;22.65;;
37349;SDS011;23231;52.358;4.926;2022-11-28T07:29:47;76.50;;;25.75;;
37349;SDS011;23231;52.358;4.926;2022-11-28T07:34:47;67.80;;;23.58;;
37349;SDS011;23231;52.358;4.926;2022-11-28T07:39:48;68.30;;;23.50;;
37349;SDS011;23231;52.358;4.926;2022-11-28T07:44:48;53.15;;;22.48;;
37349;SDS011;23231;52.358;4.926;2022-11-28T07:49:49;72.65;;;25.00;;
37349;SDS011;23231;52.358;4.926;2022-11-28T07:54:49;88.20;;;26.13;;
37349;SDS011;23231;52.358;4.926;2022-11-28T07:59:49;77.20;;;24.43;;
37349;SDS011;23231;52.358;4.926;2022-11-28T08:04:53;67.93;;;24.92;;
37349;SDS011;23231;52.358;4.926;2022-11-28T08:09:53;59.05;;;22.10;;
37349;SDS011;23231;52.358;4.926;2022-11-28T08:14:54;77.10;;;23.23;;
37349;SDS011;23231;52.358;4.926;2022-11-28T08:19:54;60.85;;;22.27;;
37349;SDS011;23231;52.358;4.926;2022-11-28T08:24:54;83.30;;;24.42;;
37349;SDS011;23231;52.358;4.926;2022-11-28T08:29:55;121.43;;;28.60;;
37349;SDS011;23231;52.358;4.926;2022-11-28T08:34:56;141.00;;;29.67;;
37349;SDS011;23231;52.358;4.926;2022-11-28T08:39:57;84.50;;;25.50;;
37349;SDS011;23231;52.358;4.926;2022-11-28T08:44:57;131.13;;;30.92;;
37349;SDS011;23231;52.358;4.926;2022-11-28T08:49:57;125.90;;;28.83;;
37349;SDS011;23231;52.358;4.926;2022-11-28T08:54:58;84.35;;;25.48;;
37349;SDS011;23231;52.358;4.926;2022-11-28T08:59:58;83.53;;;25.52;;
37349;SDS011;23231;52.358;4.926;2022-11-28T09:04:58;101.72;;;26.80;;
37349;SDS011;23231;52.358;4.926;2022-11-28T09:09:59;117.80;;;27.98;;
37349;SDS011;23231;52.358;4.926;2022-11-28T09:14:59;111.78;;;28.17;;
37349;SDS011;23231;52.358;4.926;2022-11-28T09:20:00;113.95;;;28.33;;
37349;SDS011;23231;52.358;4.926;2022-11-28T09:25:00;116.43;;;27.83;;
37349;SDS011;23231;52.358;4.926;2022-11-28T09:30:00;128.85;;;30.75;;
37349;SDS011;23231;52.358;4.926;2022-11-28T09:35:01;105.85;;;28.55;;
37349;SDS011;23231;52.358;4.926;2022-11-28T09:40:02;100.30;;;29.77;;
37349;SDS011;23231;52.358;4.926;2022-11-28T09:45:08;125.75;;;29.42;;
37349;SDS011;23231;52.358;4.926;2022-11-28T09:50:13;86.57;;;26.88;;
37349;SDS011;23231;52.358;4.926;2022-11-28T10:05:35;83.30;;;26.52;;
37349;SDS011;23231;52.358;4.926;2022-11-28T10:21:22;107.40;;;31.25;;
37349;SDS011;23231;52.358;4.926;2022-11-28T10:26:28;98.10;;;30.35;;
37349;SDS011;23231;52.358;4.926;2022-11-28T10:31:38;181.85;;;36.45;;
37349;SDS011;23231;52.358;4.926;2022-11-28T10:36:46;154.25;;;33.55;;
37349;SDS011;23231;52.358;4.926;2022-11-28T10:53:00;171.55;;;33.65;;
37349;SDS011;23231;52.358;4.926;2022-11-28T10:58:10;116.90;;;31.25;;
37349;SDS011;23231;52.358;4.926;2022-11-28T11:03:21;177.85;;;35.80;;
37349;SDS011;23231;52.358;4.926;2022-11-28T11:08:29;111.72;;;30.83;;
37349;SDS011;23231;52.358;4.926;2022-11-28T11:13:34;184.83;;;38.23;;
37349;SDS011;23231;52.358;4.926;2022-11-28T11:18:53;101.90;;;29.98;;
37349;SDS011;23231;52.358;4.926;2022-11-28T11:24:11;137.40;;;32.38;;
37349;SDS011;23231;52.358;4.926;2022-11-28T11:29:48;132.77;;;34.47;;
37349;SDS011;23231;52.358;4.926;2022-11-28T11:34:43;120.35;;;33.58;;
37349;SDS011;23231;52.358;4.926;2022-11-28T11:39:45;123.15;;;32.90;;
37349;SDS011;23231;52.358;4.926;2022-11-28T11:44:48;161.68;;;38.25;;
37349;SDS011;23231;52.358;4.926;2022-11-28T11:49:49;166.35;;;36.35;;
37349;SDS011;23231;52.358;4.926;2022-11-28T12:00:01;128.68;;;33.53;;
37349;SDS011;23231;52.358;4.926;2022-11-28T12:05:10;127.00;;;34.92;;
37349;SDS011;23231;52.358;4.926;2022-11-28T12:10:17;83.95;;;28.13;;
37349;SDS011;23231;52.358;4.926;2022-11-28T12:25:38;82.35;;;27.52;;
37349;SDS011;23231;52.358;4.926;2022-11-28T12:35:51;85.32;;;29.10;;
37349;SDS011;23231;52.358;4.926;2022-11-28T12:57:18;68.03;;;24.90;;
37349;SDS011;23231;52.358;4.926;2022-11-28T13:02:26;60.92;;;22.75;;
37349;SDS011;23231;52.358;4.926;2022-11-28T13:17:50;69.53;;;25.15;;
37349;SDS011;23231;52.358;4.926;2022-11-28T13:38:55;64.57;;;25.95;;
37349;SDS011;23231;52.358;4.926;2022-11-28T13:44:03;64.20;;;25.30;;
37349;SDS011;23231;52.358;4.926;2022-11-28T13:49:25;59.78;;;23.83;;
37349;SDS011;23231;52.358;4.926;2022-11-28T13:59:26;54.80;;;23.55;;
37349;SDS011;23231;52.358;4.926;2022-11-28T14:04:27;70.38;;;24.67;;
37349;SDS011;23231;52.358;4.926;2022-11-28T14:24:55;59.95;;;23.50;;
37349;SDS011;23231;52.358;4.926;2022-11-28T14:30:01;61.10;;;25.55;;
37349;SDS011;23231;52.358;4.926;2022-11-28T14:35:01;68.78;;;26.50;;
37349;SDS011;23231;52.358;4.926;2022-11-28T14:40:33;57.53;;;24.25;;
37349;SDS011;23231;52.358;4.926;2022-11-28T14:45:42;55.15;;;22.63;;
37349;SDS011;23231;52.358;4.926;2022-11-28T14:55:50;53.50;;;22.42;;
37349;SDS011;23231;52.358;4.926;2022-11-28T15:00:54;49.67;;;22.88;;
37349;SDS011;23231;52.358;4.926;2022-11-28T15:16:34;63.08;;;24.10;;
37349;SDS011;23231;52.358;4.926;2022-11-28T15:21:41;49.53;;;20.70;;
37349;SDS011;23231;52.358;4.926;2022-11-28T15:26:43;59.45;;;21.17;;
37349;SDS011;23231;52.358;4.926;2022-11-28T15:31:45;53.03;;;20.88;;
37349;SDS011;23231;52.358;4.926;2022-11-28T15:36:49;58.70;;;22.50;;
37349;SDS011;23231;52.358;4.926;2022-11-28T15:41:51;62.83;;;21.90;;
37349;SDS011;23231;52.358;4.926;2022-11-28T15:46:51;61.05;;;23.63;;
37349;SDS011;23231;52.358;4.926;2022-11-28T15:51:53;63.35;;;22.98;;
37349;SDS011;23231;52.358;4.926;2022-11-28T15:56:55;70.03;;;24.38;;
37349;SDS011;23231;52.358;4.926;2022-11-28T16:01:58;60.05;;;22.33;;
37349;SDS011;23231;52.358;4.926;2022-11-28T16:07:02;58.25;;;22.27;;
37349;SDS011;23231;52.358;4.926;2022-11-28T16:12:03;63.15;;;22.15;;
37349;SDS011;23231;52.358;4.926;2022-11-28T16:17:07;59.78;;;23.08;;
37349;SDS011;23231;52.358;4.926;2022-11-28T16:22:17;67.55;;;25.30;;
37349;SDS011;23231;52.358;4.926;2022-11-28T16:27:32;70.93;;;24.73;;
37349;SDS011;23231;52.358;4.926;2022-11-28T16:37:37;81.75;;;29.38;;
37349;SDS011;23231;52.358;4.926;2022-11-28T16:42:38;91.93;;;28.55;;
37349;SDS011;23231;52.358;4.926;2022-11-28T16:47:38;75.05;;;26.98;;
37349;SDS011;23231;52.358;4.926;2022-11-28T16:52:40;84.93;;;27.73;;
37349;SDS011;23231;52.358;4.926;2022-11-28T16:57:44;87.10;;;28.70;;
37349;SDS011;23231;52.358;4.926;2022-11-28T17:02:45;89.18;;;28.25;;
37349;SDS011;23231;52.358;4.926;2022-11-28T17:07:51;91.32;;;30.08;;
37349;SDS011;23231;52.358;4.926;2022-11-28T17:12:52;70.78;;;26.63;;
37349;SDS011;23231;52.358;4.926;2022-11-28T17:17:52;71.72;;;25.35;;
37349;SDS011;23231;52.358;4.926;2022-11-28T17:22:54;73.47;;;25.50;;
37349;SDS011;23231;52.358;4.926;2022-11-28T17:27:57;75.75;;;26.38;;
37349;SDS011;23231;52.358;4.926;2022-11-28T17:32:58;60.88;;;25.00;;
37349;SDS011;23231;52.358;4.926;2022-11-28T17:37:59;86.95;;;28.40;;
37349;SDS011;23231;52.358;4.926;2022-11-28T17:42:59;75.15;;;26.40;;
37349;SDS011;23231;52.358;4.926;2022-11-28T17:48:00;92.03;;;30.23;;
37349;SDS011;23231;52.358;4.926;2022-11-28T17:53:00;63.50;;;24.27;;
37349;SDS011;23231;52.358;4.926;2022-11-28T17:58:01;68.80;;;25.27;;
37349;SDS011;23231;52.358;4.926;2022-11-28T18:03:01;73.88;;;26.10;;
37349;SDS011;23231;52.358;4.926;2022-11-28T18:08:01;72.53;;;24.95;;
37349;SDS011;23231;52.358;4.926;2022-11-28T18:13:02;88.30;;;27.05;;
37349;SDS011;23231;52.358;4.926;2022-11-28T18:18:04;55.80;;;23.98;;
37349;SDS011;23231;52.358;4.926;2022-11-28T18:23:05;58.85;;;22.77;;
37349;SDS011;23231;52.358;4.926;2022-11-28T18:28:05;54.42;;;21.75;;
37349;SDS011;23231;52.358;4.926;2022-11-28T18:33:06;53.85;;;21.88;;
37349;SDS011;23231;52.358;4.926;2022-11-28T18:38:07;64.65;;;24.23;;
37349;SDS011;23231;52.358;4.926;2022-11-28T18:43:08;58.92;;;24.00;;
37349;SDS011;23231;52.358;4.926;2022-11-28T18:48:08;46.42;;;18.80;;
37349;SDS011;23231;52.358;4.926;2022-11-28T18:53:08;53.70;;;20.42;;
37349;SDS011;23231;52.358;4.926;2022-11-28T18:58:09;53.47;;;21.33;;
37349;SDS011;23231;52.358;4.926;2022-11-28T19:03:09;40.63;;;18.27;;
37349;SDS011;23231;52.358;4.926;2022-11-28T19:08:09;46.08;;;19.80;;
37349;SDS011;23231;52.358;4.926;2022-11-28T19:13:10;54.97;;;18.98;;
37349;SDS011;23231;52.358;4.926;2022-11-28T19:18:10;53.85;;;17.88;;
37349;SDS011;23231;52.358;4.926;2022-11-28T19:23:11;62.35;;;19.90;;
37349;SDS011;23231;52.358;4.926;2022-11-28T19:28:11;43.47;;;18.58;;
37349;SDS011;23231;52.358;4.926;2022-11-28T19:33:12;45.25;;;18.73;;
37349;SDS011;23231;52.358;4.926;2022-11-28T19:38:13;54.05;;;19.65;;
37349;SDS011;23231;52.358;4.926;2022-11-28T19:43:13;39.75;;;21.00;;
37349;SDS011;23231;52.358;4.926;2022-11-28T19:48:13;59.10;;;21.58;;
37349;SDS011;23231;52.358;4.926;2022-11-28T19:53:14;53.92;;;19.45;;
37349;SDS011;23231;52.358;4.926;2022-11-28T19:58:15;40.83;;;18.23;;
37349;SDS011;23231;52.358;4.926;2022-11-28T20:03:16;46.10;;;18.95;;
37349;SDS011;23231;52.358;4.926;2022-11-28T20:08:17;39.88;;;19.90;;
37349;SDS011;23231;52.358;4.926;2022-11-28T20:13:17;40.73;;;18.83;;
37349;SDS011;23231;52.358;4.926;2022-11-28T20:18:18;56.40;;;19.88;;
37349;SDS011;23231;52.358;4.926;2022-11-28T20:23:18;45.83;;;20.20;;
37349;SDS011;23231;52.358;4.926;2022-11-28T20:28:18;41.92;;;19.65;;
37349;SDS011;23231;52.358;4.926;2022-11-28T20:33:19;50.10;;;21.48;;
37349;SDS011;23231;52.358;4.926;2022-11-28T20:38:19;78.78;;;24.05;;
37349;SDS011;23231;52.358;4.926;2022-11-28T20:43:19;55.05;;;21.35;;
37349;SDS011;23231;52.358;4.926;2022-11-28T20:48:20;54.15;;;22.85;;
37349;SDS011;23231;52.358;4.926;2022-11-28T20:53:20;75.65;;;25.98;;
37349;SDS011;23231;52.358;4.926;2022-11-28T20:58:21;54.33;;;21.90;;
37349;SDS011;23231;52.358;4.926;2022-11-28T21:03:21;61.88;;;23.80;;
37349;SDS011;23231;52.358;4.926;2022-11-28T21:08:22;57.85;;;23.90;;
37349;SDS011;23231;52.358;4.926;2022-11-28T21:13:24;59.55;;;22.40;;
37349;SDS011;23231;52.358;4.926;2022-11-28T21:18:24;77.55;;;26.42;;
37349;SDS011;23231;52.358;4.926;2022-11-28T21:23:25;61.30;;;23.27;;
37349;SDS011;23231;52.358;4.926;2022-11-28T21:28:25;83.05;;;26.15;;
37349;SDS011;23231;52.358;4.926;2022-11-28T21:33:25;63.53;;;25.83;;
37349;SDS011;23231;52.358;4.926;2022-11-28T21:38:26;75.35;;;26.55;;
37349;SDS011;23231;52.358;4.926;2022-11-28T21:43:27;78.47;;;26.95;;
37349;SDS011;23231;52.358;4.926;2022-11-28T21:48:28;105.97;;;31.90;;
37349;SDS011;23231;52.358;4.926;2022-11-28T21:53:31;97.47;;;31.17;;
37349;SDS011;23231;52.358;4.926;2022-11-28T21:58:32;91.80;;;30.33;;
37349;SDS011;23231;52.358;4.926;2022-11-28T22:03:32;112.63;;;34.00;;
37349;SDS011;23231;52.358;4.926;2022-11-28T22:08:33;119.03;;;33.75;;
37349;SDS011;23231;52.358;4.926;2022-11-28T22:13:34;109.85;;;33.20;;
37349;SDS011;23231;52.358;4.926;2022-11-28T22:18:34;131.98;;;35.40;;
37349;SDS011;23231;52.358;4.926;2022-11-28T22:23:35;126.00;;;33.95;;
37349;SDS011;23231;52.358;4.926;2022-11-28T22:28:37;105.20;;;33.40;;
37349;SDS011;23231;52.358;4.926;2022-11-28T22:33:38;111.90;;;33.78;;
37349;SDS011;23231;52.358;4.926;2022-11-28T22:38:39;147.48;;;38.53;;
37349;SDS011;23231;52.358;4.926;2022-11-28T22:43:40;104.90;;;32.70;;
37349;SDS011;23231;52.358;4.926;2022-11-28T22:48:40;95.85;;;31.55;;
37349;SDS011;23231;52.358;4.926;2022-11-28T22:53:41;112.18;;;34.17;;
37349;SDS011;23231;52.358;4.926;2022-11-28T22:58:42;126.47;;;33.95;;
37349;SDS011;23231;52.358;4.926;2022-11-28T23:03:43;108.38;;;33.88;;
37349;SDS011;23231;52.358;4.926;2022-11-28T23:08:45;108.95;;;33.28;;
37349;SDS011;23231;52.358;4.926;2022-11-28T23:13:46;126.20;;;34.70;;
37349;SDS011;23231;52.358;4.926;2022-11-28T23:18:47;94.65;;;31.60;;
37349;SDS011;23231;52.358;4.926;2022-11-28T23:23:49;95.00;;;30.05;;
37349;SDS011;23231;52.358;4.926;2022-11-28T23:28:50;107.78;;;33.17;;
37349;SDS011;23231;52.358;4.926;2022-11-28T23:33:51;112.13;;;35.03;;
37349;SDS011;23231;52.358;4.926;2022-11-28T23:38:53;103.88;;;31.75;;
37349;SDS011;23231;52.358;4.926;2022-11-28T23:43:54;93.07;;;30.73;;
37349;SDS011;23231;52.358;4.926;2022-11-28T23:48:55;89.63;;;29.98;;
37349;SDS011;23231;52.358;4.926;2022-11-28T23:53:56;111.28;;;31.83;;
37349;SDS011;23231;52.358;4.926;2022-11-28T23:58:58;123.97;;;35.15;;
